sensor_id;sensor_type;location;lat;lon;timestamp;P1;durP1;ratioP1;P2;durP2;ratioP2
6420;SDS011;3243;50.958;7.012;2022-08-01T00:00:05;2.15;;;1.70;;
6420;SDS011;3243;50.958;7.012;2022-08-01T00:02:35;1.98;;;1.50;;
6420;SDS011;3243;50.958;7.012;2022-08-01T00:05:06;2.25;;;1.63;;
6420;SDS011;3243;50.958;7.012;2022-08-01T00:07:34;2.92;;;1.95;;
6420;SDS011;3243;50.958;7.012;2022-08-01T00:10:03;2.40;;;1.77;;
6420;SDS011;3243;50.958;7.012;2022-08-01T00:12:30;3.03;;;1.90;;
6420;SDS011;3243;50.958;7.012;2022-08-01T00:14:57;2.63;;;1.88;;
6420;SDS011;3243;50.958;7.012;2022-08-01T00:17:24;3.85;;;2.10;;
6420;SDS011;3243;50.958;7.012;2022-08-01T00:19:51;2.00;;;1.80;;
6420;SDS011;3243;50.958;7.012;2022-08-01T00:22:18;2.22;;;1.80;;
6420;SDS011;3243;50.958;7.012;2022-08-01T00:24:44;5.38;;;3.90;;
6420;SDS011;3243;50.958;7.012;2022-08-01T00:27:11;3.28;;;2.50;;
6420;SDS011;3243;50.958;7.012;2022-08-01T00:29:38;10.40;;;7.72;;
6420;SDS011;3243;50.958;7.012;2022-08-01T00:32:25;2.50;;;2.15;;
6420;SDS011;3243;50.958;7.012;2022-08-01T00:34:51;4.13;;;2.05;;
6420;SDS011;3243;50.958;7.012;2022-08-01T00:37:18;3.15;;;2.10;;
6420;SDS011;3243;50.958;7.012;2022-08-01T00:39:45;3.33;;;2.55;;
6420;SDS011;3243;50.958;7.012;2022-08-01T00:42:12;2.53;;;1.73;;
6420;SDS011;3243;50.958;7.012;2022-08-01T00:44:39;4.03;;;2.05;;
6420;SDS011;3243;50.958;7.012;2022-08-01T00:47:07;2.10;;;1.90;;
6420;SDS011;3243;50.958;7.012;2022-08-01T00:49:34;3.05;;;2.05;;
6420;SDS011;3243;50.958;7.012;2022-08-01T00:52:02;3.67;;;1.90;;
6420;SDS011;3243;50.958;7.012;2022-08-01T00:54:31;2.60;;;2.10;;
6420;SDS011;3243;50.958;7.012;2022-08-01T00:56:58;6.75;;;2.25;;
6420;SDS011;3243;50.958;7.012;2022-08-01T00:59:25;1.95;;;1.77;;
6420;SDS011;3243;50.958;7.012;2022-08-01T01:01:53;5.15;;;3.67;;
6420;SDS011;3243;50.958;7.012;2022-08-01T01:04:21;9.05;;;6.35;;
6420;SDS011;3243;50.958;7.012;2022-08-01T01:07:00;8.88;;;5.03;;
6420;SDS011;3243;50.958;7.012;2022-08-01T01:12:31;3.67;;;2.25;;
6420;SDS011;3243;50.958;7.012;2022-08-01T01:15:13;4.55;;;2.30;;
6420;SDS011;3243;50.958;7.012;2022-08-01T01:17:46;4.10;;;2.50;;
6420;SDS011;3243;50.958;7.012;2022-08-01T01:20:21;2.70;;;2.40;;
6420;SDS011;3243;50.958;7.012;2022-08-01T01:22:57;2.80;;;2.50;;
6420;SDS011;3243;50.958;7.012;2022-08-01T01:25:51;4.10;;;3.35;;
6420;SDS011;3243;50.958;7.012;2022-08-01T01:31:21;2.60;;;2.40;;
6420;SDS011;3243;50.958;7.012;2022-08-01T01:33:50;3.40;;;2.50;;
6420;SDS011;3243;50.958;7.012;2022-08-01T01:36:19;4.38;;;2.60;;
6420;SDS011;3243;50.958;7.012;2022-08-01T01:38:48;3.88;;;2.47;;
6420;SDS011;3243;50.958;7.012;2022-08-01T01:41:17;3.22;;;2.50;;
6420;SDS011;3243;50.958;7.012;2022-08-01T01:43:45;3.65;;;2.30;;
6420;SDS011;3243;50.958;7.012;2022-08-01T01:46:14;2.85;;;2.33;;
6420;SDS011;3243;50.958;7.012;2022-08-01T01:48:43;4.35;;;2.80;;
6420;SDS011;3243;50.958;7.012;2022-08-01T01:51:12;2.95;;;2.65;;
6420;SDS011;3243;50.958;7.012;2022-08-01T01:53:40;3.83;;;2.83;;
6420;SDS011;3243;50.958;7.012;2022-08-01T01:56:07;3.88;;;2.80;;
6420;SDS011;3243;50.958;7.012;2022-08-01T01:58:36;7.30;;;2.85;;
6420;SDS011;3243;50.958;7.012;2022-08-01T02:01:05;3.70;;;3.00;;
6420;SDS011;3243;50.958;7.012;2022-08-01T02:03:40;4.15;;;3.08;;
6420;SDS011;3243;50.958;7.012;2022-08-01T02:06:09;4.03;;;3.00;;
6420;SDS011;3243;50.958;7.012;2022-08-01T02:08:39;4.90;;;3.72;;
6420;SDS011;3243;50.958;7.012;2022-08-01T02:11:07;3.20;;;2.90;;
6420;SDS011;3243;50.958;7.012;2022-08-01T02:14:08;7.07;;;3.10;;
6420;SDS011;3243;50.958;7.012;2022-08-01T02:16:36;3.70;;;2.85;;
6420;SDS011;3243;50.958;7.012;2022-08-01T02:19:05;3.47;;;2.75;;
6420;SDS011;3243;50.958;7.012;2022-08-01T02:21:35;4.00;;;2.97;;
6420;SDS011;3243;50.958;7.012;2022-08-01T02:24:14;3.53;;;2.58;;
6420;SDS011;3243;50.958;7.012;2022-08-01T02:26:56;4.40;;;2.83;;
6420;SDS011;3243;50.958;7.012;2022-08-01T02:29:32;4.40;;;2.65;;
6420;SDS011;3243;50.958;7.012;2022-08-01T02:32:04;2.55;;;2.35;;
6420;SDS011;3243;50.958;7.012;2022-08-01T02:34:33;3.47;;;2.60;;
6420;SDS011;3243;50.958;7.012;2022-08-01T02:37:01;3.83;;;2.42;;
6420;SDS011;3243;50.958;7.012;2022-08-01T02:39:30;3.97;;;2.45;;
6420;SDS011;3243;50.958;7.012;2022-08-01T02:41:59;4.57;;;2.58;;
6420;SDS011;3243;50.958;7.012;2022-08-01T02:44:30;6.38;;;2.60;;
6420;SDS011;3243;50.958;7.012;2022-08-01T02:47:00;3.88;;;2.50;;
6420;SDS011;3243;50.958;7.012;2022-08-01T02:49:35;5.30;;;2.78;;
6420;SDS011;3243;50.958;7.012;2022-08-01T02:52:07;5.70;;;2.85;;
6420;SDS011;3243;50.958;7.012;2022-08-01T02:54:35;5.07;;;3.00;;
6420;SDS011;3243;50.958;7.012;2022-08-01T02:57:06;4.60;;;2.97;;
6420;SDS011;3243;50.958;7.012;2022-08-01T02:59:39;3.80;;;3.05;;
6420;SDS011;3243;50.958;7.012;2022-08-01T03:02:08;6.40;;;3.30;;
6420;SDS011;3243;50.958;7.012;2022-08-01T03:04:38;3.63;;;3.10;;
6420;SDS011;3243;50.958;7.012;2022-08-01T03:07:07;4.97;;;3.53;;
6420;SDS011;3243;50.958;7.012;2022-08-01T03:09:37;5.60;;;3.30;;
6420;SDS011;3243;50.958;7.012;2022-08-01T03:12:19;5.80;;;3.40;;
6420;SDS011;3243;50.958;7.012;2022-08-01T03:14:49;6.82;;;3.30;;
6420;SDS011;3243;50.958;7.012;2022-08-01T03:17:20;5.32;;;3.60;;
6420;SDS011;3243;50.958;7.012;2022-08-01T03:19:48;6.35;;;3.70;;
6420;SDS011;3243;50.958;7.012;2022-08-01T03:22:17;5.00;;;3.58;;
6420;SDS011;3243;50.958;7.012;2022-08-01T03:24:47;6.88;;;3.85;;
6420;SDS011;3243;50.958;7.012;2022-08-01T03:27:18;5.45;;;3.83;;
6420;SDS011;3243;50.958;7.012;2022-08-01T03:29:47;4.47;;;3.40;;
6420;SDS011;3243;50.958;7.012;2022-08-01T03:32:15;6.53;;;4.10;;
6420;SDS011;3243;50.958;7.012;2022-08-01T03:34:43;6.32;;;3.45;;
6420;SDS011;3243;50.958;7.012;2022-08-01T03:37:32;6.32;;;3.17;;
6420;SDS011;3243;50.958;7.012;2022-08-01T03:40:40;4.97;;;3.50;;
6420;SDS011;3243;50.958;7.012;2022-08-01T03:43:15;5.38;;;3.30;;
6420;SDS011;3243;50.958;7.012;2022-08-01T03:45:48;5.20;;;3.95;;
6420;SDS011;3243;50.958;7.012;2022-08-01T03:48:18;6.05;;;3.92;;
6420;SDS011;3243;50.958;7.012;2022-08-01T03:50:50;4.65;;;3.58;;
6420;SDS011;3243;50.958;7.012;2022-08-01T03:53:20;4.28;;;3.72;;
6420;SDS011;3243;50.958;7.012;2022-08-01T03:55:49;4.53;;;3.80;;
6420;SDS011;3243;50.958;7.012;2022-08-01T03:58:16;5.72;;;3.80;;
6420;SDS011;3243;50.958;7.012;2022-08-01T04:00:44;5.28;;;3.65;;
6420;SDS011;3243;50.958;7.012;2022-08-01T04:03:12;5.97;;;3.75;;
6420;SDS011;3243;50.958;7.012;2022-08-01T04:05:42;5.30;;;3.65;;
6420;SDS011;3243;50.958;7.012;2022-08-01T04:08:09;6.53;;;4.30;;
6420;SDS011;3243;50.958;7.012;2022-08-01T04:10:36;9.50;;;4.13;;
6420;SDS011;3243;50.958;7.012;2022-08-01T04:13:04;8.25;;;4.30;;
6420;SDS011;3243;50.958;7.012;2022-08-01T04:15:31;6.03;;;3.85;;
6420;SDS011;3243;50.958;7.012;2022-08-01T04:17:57;6.20;;;4.35;;
6420;SDS011;3243;50.958;7.012;2022-08-01T04:20:24;6.20;;;4.50;;
6420;SDS011;3243;50.958;7.012;2022-08-01T04:22:51;5.97;;;4.25;;
6420;SDS011;3243;50.958;7.012;2022-08-01T04:25:25;8.10;;;4.32;;
6420;SDS011;3243;50.958;7.012;2022-08-01T04:27:55;10.18;;;4.80;;
6420;SDS011;3243;50.958;7.012;2022-08-01T04:30:25;5.57;;;4.13;;
6420;SDS011;3243;50.958;7.012;2022-08-01T04:32:56;6.72;;;4.15;;
6420;SDS011;3243;50.958;7.012;2022-08-01T04:35:25;7.18;;;4.45;;
6420;SDS011;3243;50.958;7.012;2022-08-01T04:38:14;8.63;;;6.20;;
6420;SDS011;3243;50.958;7.012;2022-08-01T04:40:44;8.48;;;4.82;;
6420;SDS011;3243;50.958;7.012;2022-08-01T04:43:12;9.13;;;4.95;;
6420;SDS011;3243;50.958;7.012;2022-08-01T04:45:40;6.97;;;4.97;;
6420;SDS011;3243;50.958;7.012;2022-08-01T04:48:09;6.78;;;4.60;;
6420;SDS011;3243;50.958;7.012;2022-08-01T04:50:38;6.93;;;4.80;;
6420;SDS011;3243;50.958;7.012;2022-08-01T04:53:17;7.00;;;5.68;;
6420;SDS011;3243;50.958;7.012;2022-08-01T04:55:45;6.95;;;4.90;;
6420;SDS011;3243;50.958;7.012;2022-08-01T04:58:12;7.55;;;5.10;;
6420;SDS011;3243;50.958;7.012;2022-08-01T05:00:44;7.65;;;5.47;;
6420;SDS011;3243;50.958;7.012;2022-08-01T05:03:11;8.65;;;6.05;;
6420;SDS011;3243;50.958;7.012;2022-08-01T05:05:38;7.72;;;5.50;;
6420;SDS011;3243;50.958;7.012;2022-08-01T05:08:05;8.13;;;6.30;;
6420;SDS011;3243;50.958;7.012;2022-08-01T05:10:32;9.90;;;6.90;;
6420;SDS011;3243;50.958;7.012;2022-08-01T05:12:59;8.13;;;6.25;;
6420;SDS011;3243;50.958;7.012;2022-08-01T05:15:26;11.93;;;7.50;;
6420;SDS011;3243;50.958;7.012;2022-08-01T05:17:53;9.68;;;6.93;;
6420;SDS011;3243;50.958;7.012;2022-08-01T05:20:22;12.07;;;7.70;;
6420;SDS011;3243;50.958;7.012;2022-08-01T05:22:49;10.95;;;7.85;;
6420;SDS011;3243;50.958;7.012;2022-08-01T05:25:15;10.35;;;6.85;;
6420;SDS011;3243;50.958;7.012;2022-08-01T05:27:45;10.27;;;7.63;;
6420;SDS011;3243;50.958;7.012;2022-08-01T05:30:16;10.95;;;7.50;;
6420;SDS011;3243;50.958;7.012;2022-08-01T05:32:42;12.32;;;7.90;;
6420;SDS011;3243;50.958;7.012;2022-08-01T05:35:10;11.52;;;8.00;;
6420;SDS011;3243;50.958;7.012;2022-08-01T05:37:36;11.10;;;8.40;;
6420;SDS011;3243;50.958;7.012;2022-08-01T05:40:04;15.98;;;9.18;;
6420;SDS011;3243;50.958;7.012;2022-08-01T05:42:31;10.07;;;8.10;;
6420;SDS011;3243;50.958;7.012;2022-08-01T05:44:58;12.25;;;8.20;;
6420;SDS011;3243;50.958;7.012;2022-08-01T05:47:25;15.88;;;9.43;;
6420;SDS011;3243;50.958;7.012;2022-08-01T05:49:52;12.65;;;10.02;;
6420;SDS011;3243;50.958;7.012;2022-08-01T05:52:18;11.82;;;9.23;;
6420;SDS011;3243;50.958;7.012;2022-08-01T05:54:45;12.52;;;9.82;;
6420;SDS011;3243;50.958;7.012;2022-08-01T05:57:12;14.77;;;9.80;;
6420;SDS011;3243;50.958;7.012;2022-08-01T05:59:40;13.82;;;9.35;;
6420;SDS011;3243;50.958;7.012;2022-08-01T06:02:07;14.20;;;9.45;;
6420;SDS011;3243;50.958;7.012;2022-08-01T06:04:35;16.13;;;10.50;;
6420;SDS011;3243;50.958;7.012;2022-08-01T06:07:01;12.20;;;10.05;;
6420;SDS011;3243;50.958;7.012;2022-08-01T06:09:28;11.98;;;9.90;;
6420;SDS011;3243;50.958;7.012;2022-08-01T06:11:56;14.25;;;9.60;;
6420;SDS011;3243;50.958;7.012;2022-08-01T06:14:23;12.10;;;9.50;;
6420;SDS011;3243;50.958;7.012;2022-08-01T06:16:50;13.30;;;8.73;;
6420;SDS011;3243;50.958;7.012;2022-08-01T06:19:17;13.27;;;9.50;;
6420;SDS011;3243;50.958;7.012;2022-08-01T06:21:44;12.02;;;7.90;;
6420;SDS011;3243;50.958;7.012;2022-08-01T06:24:11;9.30;;;7.60;;
6420;SDS011;3243;50.958;7.012;2022-08-01T06:26:37;12.05;;;7.00;;
6420;SDS011;3243;50.958;7.012;2022-08-01T06:29:04;11.38;;;7.78;;
6420;SDS011;3243;50.958;7.012;2022-08-01T06:31:31;8.65;;;7.15;;
6420;SDS011;3243;50.958;7.012;2022-08-01T06:34:08;9.25;;;6.93;;
6420;SDS011;3243;50.958;7.012;2022-08-01T06:36:35;11.38;;;7.15;;
6420;SDS011;3243;50.958;7.012;2022-08-01T06:39:02;10.05;;;7.80;;
6420;SDS011;3243;50.958;7.012;2022-08-01T06:41:29;9.30;;;7.88;;
6420;SDS011;3243;50.958;7.012;2022-08-01T06:43:56;11.35;;;7.70;;
6420;SDS011;3243;50.958;7.012;2022-08-01T06:46:23;7.28;;;6.05;;
6420;SDS011;3243;50.958;7.012;2022-08-01T06:48:55;8.65;;;7.55;;
6420;SDS011;3243;50.958;7.012;2022-08-01T06:51:22;9.90;;;7.05;;
6420;SDS011;3243;50.958;7.012;2022-08-01T06:53:49;9.43;;;6.80;;
6420;SDS011;3243;50.958;7.012;2022-08-01T06:56:16;9.20;;;6.28;;
6420;SDS011;3243;50.958;7.012;2022-08-01T06:58:42;8.18;;;6.25;;
6420;SDS011;3243;50.958;7.012;2022-08-01T07:01:09;7.50;;;6.70;;
6420;SDS011;3243;50.958;7.012;2022-08-01T07:03:36;8.43;;;5.95;;
6420;SDS011;3243;50.958;7.012;2022-08-01T07:06:20;8.45;;;6.70;;
6420;SDS011;3243;50.958;7.012;2022-08-01T07:08:48;7.40;;;6.30;;
6420;SDS011;3243;50.958;7.012;2022-08-01T07:11:15;9.40;;;6.50;;
6420;SDS011;3243;50.958;7.012;2022-08-01T07:13:41;7.50;;;6.38;;
6420;SDS011;3243;50.958;7.012;2022-08-01T07:16:11;7.65;;;6.70;;
6420;SDS011;3243;50.958;7.012;2022-08-01T07:18:39;6.72;;;6.03;;
6420;SDS011;3243;50.958;7.012;2022-08-01T07:21:06;7.00;;;6.28;;
6420;SDS011;3243;50.958;7.012;2022-08-01T07:23:53;7.40;;;6.30;;
6420;SDS011;3243;50.958;7.012;2022-08-01T07:26:21;7.95;;;6.43;;
6420;SDS011;3243;50.958;7.012;2022-08-01T07:28:47;8.73;;;6.55;;
6420;SDS011;3243;50.958;7.012;2022-08-01T07:31:14;7.45;;;5.90;;
6420;SDS011;3243;50.958;7.012;2022-08-01T07:33:41;6.28;;;5.68;;
6420;SDS011;3243;50.958;7.012;2022-08-01T07:36:14;8.07;;;5.97;;
6420;SDS011;3243;50.958;7.012;2022-08-01T07:38:41;10.50;;;6.00;;
6420;SDS011;3243;50.958;7.012;2022-08-01T07:41:08;7.55;;;5.90;;
6420;SDS011;3243;50.958;7.012;2022-08-01T07:43:35;7.13;;;6.30;;
6420;SDS011;3243;50.958;7.012;2022-08-01T07:46:02;7.97;;;5.72;;
6420;SDS011;3243;50.958;7.012;2022-08-01T07:48:30;8.05;;;6.03;;
6420;SDS011;3243;50.958;7.012;2022-08-01T07:50:57;8.18;;;5.82;;
6420;SDS011;3243;50.958;7.012;2022-08-01T07:53:24;8.48;;;6.30;;
6420;SDS011;3243;50.958;7.012;2022-08-01T07:55:51;7.70;;;6.10;;
6420;SDS011;3243;50.958;7.012;2022-08-01T07:58:17;6.95;;;6.18;;
6420;SDS011;3243;50.958;7.012;2022-08-01T08:00:44;8.88;;;6.50;;
6420;SDS011;3243;50.958;7.012;2022-08-01T08:03:11;7.60;;;6.50;;
6420;SDS011;3243;50.958;7.012;2022-08-01T08:05:38;9.68;;;6.90;;
6420;SDS011;3243;50.958;7.012;2022-08-01T08:08:24;6.90;;;6.20;;
6420;SDS011;3243;50.958;7.012;2022-08-01T08:10:52;6.57;;;5.30;;
6420;SDS011;3243;50.958;7.012;2022-08-01T08:13:18;8.98;;;6.13;;
6420;SDS011;3243;50.958;7.012;2022-08-01T08:15:46;6.80;;;5.85;;
6420;SDS011;3243;50.958;7.012;2022-08-01T08:18:13;7.30;;;6.47;;
6420;SDS011;3243;50.958;7.012;2022-08-01T08:20:40;7.22;;;5.65;;
6420;SDS011;3243;50.958;7.012;2022-08-01T08:23:07;5.95;;;5.32;;
6420;SDS011;3243;50.958;7.012;2022-08-01T08:26:09;5.32;;;4.80;;
6420;SDS011;3243;50.958;7.012;2022-08-01T08:28:36;7.30;;;5.40;;
6420;SDS011;3243;50.958;7.012;2022-08-01T08:31:05;6.20;;;4.72;;
6420;SDS011;3243;50.958;7.012;2022-08-01T08:33:49;6.13;;;5.10;;
6420;SDS011;3243;50.958;7.012;2022-08-01T08:36:16;7.38;;;5.18;;
6420;SDS011;3243;50.958;7.012;2022-08-01T08:38:43;7.07;;;4.93;;
6420;SDS011;3243;50.958;7.012;2022-08-01T08:41:11;6.20;;;4.95;;
6420;SDS011;3243;50.958;7.012;2022-08-01T08:43:43;6.00;;;4.95;;
6420;SDS011;3243;50.958;7.012;2022-08-01T08:46:10;5.03;;;4.30;;
6420;SDS011;3243;50.958;7.012;2022-08-01T08:48:39;6.50;;;4.72;;
6420;SDS011;3243;50.958;7.012;2022-08-01T08:51:08;7.72;;;4.57;;
6420;SDS011;3243;50.958;7.012;2022-08-01T08:53:38;6.32;;;4.38;;
6420;SDS011;3243;50.958;7.012;2022-08-01T08:56:13;5.57;;;4.30;;
6420;SDS011;3243;50.958;7.012;2022-08-01T08:58:40;6.30;;;4.45;;
6420;SDS011;3243;50.958;7.012;2022-08-01T09:01:09;4.95;;;4.25;;
6420;SDS011;3243;50.958;7.012;2022-08-01T09:03:36;6.80;;;4.30;;
6420;SDS011;3243;50.958;7.012;2022-08-01T09:06:03;5.55;;;4.82;;
6420;SDS011;3243;50.958;7.012;2022-08-01T09:08:30;5.30;;;4.20;;
6420;SDS011;3243;50.958;7.012;2022-08-01T09:10:58;5.22;;;3.97;;
6420;SDS011;3243;50.958;7.012;2022-08-01T09:13:25;5.10;;;4.20;;
6420;SDS011;3243;50.958;7.012;2022-08-01T09:15:52;7.40;;;4.90;;
6420;SDS011;3243;50.958;7.012;2022-08-01T09:18:37;5.30;;;4.72;;
6420;SDS011;3243;50.958;7.012;2022-08-01T09:21:07;4.55;;;3.90;;
6420;SDS011;3243;50.958;7.012;2022-08-01T09:23:46;19.98;;;4.70;;
6420;SDS011;3243;50.958;7.012;2022-08-01T09:26:32;6.63;;;4.47;;
6420;SDS011;3243;50.958;7.012;2022-08-01T09:29:03;5.10;;;4.50;;
6420;SDS011;3243;50.958;7.012;2022-08-01T09:31:42;6.15;;;4.13;;
6420;SDS011;3243;50.958;7.012;2022-08-01T09:34:13;3.97;;;3.58;;
6420;SDS011;3243;50.958;7.012;2022-08-01T09:36:47;7.85;;;4.22;;
6420;SDS011;3243;50.958;7.012;2022-08-01T09:39:30;4.43;;;3.90;;
6420;SDS011;3243;50.958;7.012;2022-08-01T09:42:01;5.35;;;4.38;;
6420;SDS011;3243;50.958;7.012;2022-08-01T09:44:45;4.20;;;3.80;;
6420;SDS011;3243;50.958;7.012;2022-08-01T09:47:20;4.82;;;3.78;;
6420;SDS011;3243;50.958;7.012;2022-08-01T09:49:56;5.30;;;3.70;;
6420;SDS011;3243;50.958;7.012;2022-08-01T09:52:25;6.45;;;3.58;;
6420;SDS011;3243;50.958;7.012;2022-08-01T09:55:01;4.20;;;3.80;;
6420;SDS011;3243;50.958;7.012;2022-08-01T09:57:31;5.20;;;3.92;;
6420;SDS011;3243;50.958;7.012;2022-08-01T09:59:59;7.28;;;3.90;;
6420;SDS011;3243;50.958;7.012;2022-08-01T10:02:28;4.78;;;4.28;;
6420;SDS011;3243;50.958;7.012;2022-08-01T10:04:59;4.20;;;3.80;;
6420;SDS011;3243;50.958;7.012;2022-08-01T10:07:33;6.70;;;3.83;;
6420;SDS011;3243;50.958;7.012;2022-08-01T10:10:13;5.03;;;3.42;;
6420;SDS011;3243;50.958;7.012;2022-08-01T10:12:41;4.35;;;3.95;;
6420;SDS011;3243;50.958;7.012;2022-08-01T10:15:11;4.28;;;3.80;;
6420;SDS011;3243;50.958;7.012;2022-08-01T10:17:51;4.47;;;3.90;;
6420;SDS011;3243;50.958;7.012;2022-08-01T10:20:26;4.03;;;3.63;;
6420;SDS011;3243;50.958;7.012;2022-08-01T10:22:58;4.22;;;3.80;;
6420;SDS011;3243;50.958;7.012;2022-08-01T10:25:28;5.63;;;4.25;;
6420;SDS011;3243;50.958;7.012;2022-08-01T10:28:15;3.95;;;3.65;;
6420;SDS011;3243;50.958;7.012;2022-08-01T10:30:49;4.68;;;3.50;;
6420;SDS011;3243;50.958;7.012;2022-08-01T10:33:18;4.70;;;3.63;;
6420;SDS011;3243;50.958;7.012;2022-08-01T10:36:08;4.38;;;3.53;;
6420;SDS011;3243;50.958;7.012;2022-08-01T10:38:36;4.50;;;3.90;;
6420;SDS011;3243;50.958;7.012;2022-08-01T10:41:04;3.75;;;3.15;;
6420;SDS011;3243;50.958;7.012;2022-08-01T10:43:34;5.32;;;3.80;;
6420;SDS011;3243;50.958;7.012;2022-08-01T10:46:02;4.45;;;3.50;;
6420;SDS011;3243;50.958;7.012;2022-08-01T10:48:51;6.57;;;3.88;;
6420;SDS011;3243;50.958;7.012;2022-08-01T10:51:23;4.57;;;3.80;;
6420;SDS011;3243;50.958;7.012;2022-08-01T10:54:12;4.15;;;3.83;;
6420;SDS011;3243;50.958;7.012;2022-08-01T10:56:42;5.28;;;4.72;;
6420;SDS011;3243;50.958;7.012;2022-08-01T10:59:12;5.38;;;4.05;;
6420;SDS011;3243;50.958;7.012;2022-08-01T11:02:05;4.32;;;3.90;;
6420;SDS011;3243;50.958;7.012;2022-08-01T11:04:33;4.60;;;3.50;;
6420;SDS011;3243;50.958;7.012;2022-08-01T11:17:37;4.97;;;3.50;;
6420;SDS011;3243;50.958;7.012;2022-08-01T11:20:09;4.18;;;3.42;;
6420;SDS011;3243;50.958;7.012;2022-08-01T11:23:27;3.42;;;2.90;;
6420;SDS011;3243;50.958;7.012;2022-08-01T11:28:25;4.53;;;3.42;;
6420;SDS011;3243;50.958;7.012;2022-08-01T11:41:24;4.22;;;3.10;;
6420;SDS011;3243;50.958;7.012;2022-08-01T11:44:23;5.38;;;3.30;;
6420;SDS011;3243;50.958;7.012;2022-08-01T11:49:31;6.05;;;3.67;;
6420;SDS011;3243;50.958;7.012;2022-08-01T11:52:00;3.47;;;3.17;;
6420;SDS011;3243;50.958;7.012;2022-08-01T11:54:32;5.57;;;3.50;;
6420;SDS011;3243;50.958;7.012;2022-08-01T11:57:04;3.83;;;3.35;;
6420;SDS011;3243;50.958;7.012;2022-08-01T11:59:38;4.35;;;3.20;;
6420;SDS011;3243;50.958;7.012;2022-08-01T12:02:28;3.50;;;3.20;;
6420;SDS011;3243;50.958;7.012;2022-08-01T12:05:00;5.97;;;3.30;;
6420;SDS011;3243;50.958;7.012;2022-08-01T12:07:30;4.65;;;3.47;;
6420;SDS011;3243;50.958;7.012;2022-08-01T12:12:36;3.40;;;3.10;;
6420;SDS011;3243;50.958;7.012;2022-08-01T12:15:08;6.95;;;3.20;;
6420;SDS011;3243;50.958;7.012;2022-08-01T12:20:23;3.85;;;2.97;;
6420;SDS011;3243;50.958;7.012;2022-08-01T12:22:54;3.80;;;3.15;;
6420;SDS011;3243;50.958;7.012;2022-08-01T12:25:22;3.08;;;2.80;;
6420;SDS011;3243;50.958;7.012;2022-08-01T12:27:54;3.17;;;2.88;;
6420;SDS011;3243;50.958;7.012;2022-08-01T12:30:26;3.78;;;3.42;;
6420;SDS011;3243;50.958;7.012;2022-08-01T12:32:53;4.60;;;3.28;;
6420;SDS011;3243;50.958;7.012;2022-08-01T12:35:21;5.47;;;3.50;;
6420;SDS011;3243;50.958;7.012;2022-08-01T12:37:51;3.42;;;2.95;;
6420;SDS011;3243;50.958;7.012;2022-08-01T12:42:49;2.90;;;2.70;;
6420;SDS011;3243;50.958;7.012;2022-08-01T12:45:27;3.40;;;2.95;;
6420;SDS011;3243;50.958;7.012;2022-08-01T12:48:01;3.25;;;2.95;;
6420;SDS011;3243;50.958;7.012;2022-08-01T12:50:33;2.78;;;2.28;;
6420;SDS011;3243;50.958;7.012;2022-08-01T12:53:02;2.95;;;2.38;;
6420;SDS011;3243;50.958;7.012;2022-08-01T12:55:32;2.80;;;2.10;;
6420;SDS011;3243;50.958;7.012;2022-08-01T12:58:10;4.13;;;2.20;;
6420;SDS011;3243;50.958;7.012;2022-08-01T13:00:42;3.33;;;1.92;;
6420;SDS011;3243;50.958;7.012;2022-08-01T13:03:17;2.20;;;2.00;;
6420;SDS011;3243;50.958;7.012;2022-08-01T13:08:16;2.83;;;2.10;;
6420;SDS011;3243;50.958;7.012;2022-08-01T13:10:45;2.58;;;2.10;;
6420;SDS011;3243;50.958;7.012;2022-08-01T13:13:12;2.65;;;2.20;;
6420;SDS011;3243;50.958;7.012;2022-08-01T13:16:02;2.13;;;1.92;;
6420;SDS011;3243;50.958;7.012;2022-08-01T13:18:32;1.70;;;1.60;;
6420;SDS011;3243;50.958;7.012;2022-08-01T13:21:13;2.42;;;1.95;;
6420;SDS011;3243;50.958;7.012;2022-08-01T13:23:42;2.33;;;1.90;;
6420;SDS011;3243;50.958;7.012;2022-08-01T13:29:18;1.70;;;1.60;;
6420;SDS011;3243;50.958;7.012;2022-08-01T13:31:46;5.93;;;1.90;;
6420;SDS011;3243;50.958;7.012;2022-08-01T13:34:14;1.95;;;1.75;;
6420;SDS011;3243;50.958;7.012;2022-08-01T13:36:41;3.35;;;1.95;;
6420;SDS011;3243;50.958;7.012;2022-08-01T13:39:15;3.80;;;1.50;;
6420;SDS011;3243;50.958;7.012;2022-08-01T13:42:00;2.53;;;2.25;;
6420;SDS011;3243;50.958;7.012;2022-08-01T13:44:27;2.05;;;1.80;;
6420;SDS011;3243;50.958;7.012;2022-08-01T13:46:54;1.95;;;1.60;;
6420;SDS011;3243;50.958;7.012;2022-08-01T13:49:22;1.52;;;1.40;;
6420;SDS011;3243;50.958;7.012;2022-08-01T13:51:49;2.20;;;1.50;;
6420;SDS011;3243;50.958;7.012;2022-08-01T13:54:17;1.50;;;1.40;;
6420;SDS011;3243;50.958;7.012;2022-08-01T13:56:44;1.83;;;1.65;;
6420;SDS011;3243;50.958;7.012;2022-08-01T13:59:10;2.10;;;1.50;;
6420;SDS011;3243;50.958;7.012;2022-08-01T14:01:38;1.90;;;1.70;;
6420;SDS011;3243;50.958;7.012;2022-08-01T14:04:05;1.40;;;1.30;;
6420;SDS011;3243;50.958;7.012;2022-08-01T14:06:32;3.30;;;1.85;;
6420;SDS011;3243;50.958;7.012;2022-08-01T14:09:01;2.90;;;2.30;;
6420;SDS011;3243;50.958;7.012;2022-08-01T14:11:49;3.08;;;1.90;;
6420;SDS011;3243;50.958;7.012;2022-08-01T14:14:16;3.00;;;2.10;;
6420;SDS011;3243;50.958;7.012;2022-08-01T14:16:43;2.83;;;2.10;;
6420;SDS011;3243;50.958;7.012;2022-08-01T14:19:11;2.38;;;1.83;;
6420;SDS011;3243;50.958;7.012;2022-08-01T14:21:38;1.88;;;1.73;;
6420;SDS011;3243;50.958;7.012;2022-08-01T14:24:05;2.40;;;1.85;;
6420;SDS011;3243;50.958;7.012;2022-08-01T14:26:32;2.90;;;1.58;;
6420;SDS011;3243;50.958;7.012;2022-08-01T14:29:01;1.55;;;1.45;;
6420;SDS011;3243;50.958;7.012;2022-08-01T14:31:28;1.98;;;1.60;;
6420;SDS011;3243;50.958;7.012;2022-08-01T14:33:59;2.42;;;1.60;;
6420;SDS011;3243;50.958;7.012;2022-08-01T14:36:26;2.58;;;1.77;;
6420;SDS011;3243;50.958;7.012;2022-08-01T14:38:56;2.25;;;1.40;;
6420;SDS011;3243;50.958;7.012;2022-08-01T14:41:25;2.65;;;1.50;;
6420;SDS011;3243;50.958;7.012;2022-08-01T14:43:53;1.60;;;1.50;;
6420;SDS011;3243;50.958;7.012;2022-08-01T14:46:19;1.83;;;1.58;;
6420;SDS011;3243;50.958;7.012;2022-08-01T14:48:46;1.35;;;1.25;;
6420;SDS011;3243;50.958;7.012;2022-08-01T14:51:13;2.20;;;2.00;;
6420;SDS011;3243;50.958;7.012;2022-08-01T14:53:40;1.98;;;1.80;;
6420;SDS011;3243;50.958;7.012;2022-08-01T14:56:18;3.67;;;1.80;;
6420;SDS011;3243;50.958;7.012;2022-08-01T14:58:45;1.60;;;1.50;;
6420;SDS011;3243;50.958;7.012;2022-08-01T15:01:13;3.17;;;1.63;;
6420;SDS011;3243;50.958;7.012;2022-08-01T15:03:40;2.40;;;2.00;;
6420;SDS011;3243;50.958;7.012;2022-08-01T15:06:07;2.28;;;1.85;;
6420;SDS011;3243;50.958;7.012;2022-08-01T15:08:35;3.70;;;2.22;;
6420;SDS011;3243;50.958;7.012;2022-08-01T15:11:02;2.78;;;2.58;;
6420;SDS011;3243;50.958;7.012;2022-08-01T15:13:29;2.85;;;2.35;;
6420;SDS011;3243;50.958;7.012;2022-08-01T15:15:56;2.63;;;2.42;;
6420;SDS011;3243;50.958;7.012;2022-08-01T15:18:25;2.08;;;1.88;;
6420;SDS011;3243;50.958;7.012;2022-08-01T15:20:54;2.25;;;2.05;;
6420;SDS011;3243;50.958;7.012;2022-08-01T15:23:21;1.60;;;1.50;;
6420;SDS011;3243;50.958;7.012;2022-08-01T15:25:48;2.50;;;2.30;;
6420;SDS011;3243;50.958;7.012;2022-08-01T15:28:15;3.03;;;2.20;;
6420;SDS011;3243;50.958;7.012;2022-08-01T15:30:42;3.25;;;2.53;;
6420;SDS011;3243;50.958;7.012;2022-08-01T15:33:09;5.47;;;2.30;;
6420;SDS011;3243;50.958;7.012;2022-08-01T15:35:36;4.38;;;2.75;;
6420;SDS011;3243;50.958;7.012;2022-08-01T15:38:03;2.17;;;1.98;;
6420;SDS011;3243;50.958;7.012;2022-08-01T15:40:30;2.10;;;1.83;;
6420;SDS011;3243;50.958;7.012;2022-08-01T15:43:00;2.55;;;1.92;;
6420;SDS011;3243;50.958;7.012;2022-08-01T15:45:27;3.50;;;2.00;;
6420;SDS011;3243;50.958;7.012;2022-08-01T15:48:13;1.77;;;1.67;;
6420;SDS011;3243;50.958;7.012;2022-08-01T15:50:40;2.47;;;1.80;;
6420;SDS011;3243;50.958;7.012;2022-08-01T15:53:07;5.22;;;1.80;;
6420;SDS011;3243;50.958;7.012;2022-08-01T15:55:37;1.90;;;1.80;;
6420;SDS011;3243;50.958;7.012;2022-08-01T15:58:05;2.03;;;1.83;;
6420;SDS011;3243;50.958;7.012;2022-08-01T16:00:32;2.63;;;1.85;;
6420;SDS011;3243;50.958;7.012;2022-08-01T16:03:05;2.00;;;1.70;;
6420;SDS011;3243;50.958;7.012;2022-08-01T16:05:32;2.10;;;1.90;;
6420;SDS011;3243;50.958;7.012;2022-08-01T16:08:09;2.17;;;1.98;;
6420;SDS011;3243;50.958;7.012;2022-08-01T16:10:37;3.25;;;2.92;;
6420;SDS011;3243;50.958;7.012;2022-08-01T16:13:04;2.03;;;1.90;;
6420;SDS011;3243;50.958;7.012;2022-08-01T16:15:32;3.22;;;2.70;;
6420;SDS011;3243;50.958;7.012;2022-08-01T16:18:02;2.78;;;2.15;;
6420;SDS011;3243;50.958;7.012;2022-08-01T16:20:31;3.70;;;3.13;;